sensor_id;sensor_type;location;lat;lon;timestamp;P1;durP1;ratioP1;P2;durP2;ratioP2
74102;SDS011;62853;46.166;3.640;2023-04-16T00:00:00;11.10;;;2.95;;
74102;SDS011;62853;46.166;3.640;2023-04-16T00:02:28;11.30;;;2.83;;
74102;SDS011;62853;46.166;3.640;2023-04-16T00:04:53;6.95;;;3.10;;
74102;SDS011;62853;46.166;3.640;2023-04-16T00:07:18;3.80;;;2.30;;
74102;SDS011;62853;46.166;3.640;2023-04-16T00:09:44;6.95;;;2.72;;
74102;SDS011;62853;46.166;3.640;2023-04-16T00:12:10;8.57;;;2.75;;
74102;SDS011;62853;46.166;3.640;2023-04-16T00:14:36;6.13;;;2.88;;
74102;SDS011;62853;46.166;3.640;2023-04-16T00:17:01;10.60;;;3.13;;
74102;SDS011;62853;46.166;3.640;2023-04-16T00:19:26;8.85;;;2.63;;
74102;SDS011;62853;46.166;3.640;2023-04-16T00:21:52;8.48;;;2.55;;
74102;SDS011;62853;46.166;3.640;2023-04-16T00:24:17;6.03;;;3.00;;
74102;SDS011;62853;46.166;3.640;2023-04-16T00:26:43;7.03;;;3.05;;
74102;SDS011;62853;46.166;3.640;2023-04-16T00:29:10;5.88;;;2.75;;
74102;SDS011;62853;46.166;3.640;2023-04-16T00:31:36;4.90;;;2.70;;
74102;SDS011;62853;46.166;3.640;2023-04-16T00:34:02;6.43;;;2.50;;
74102;SDS011;62853;46.166;3.640;2023-04-16T00:36:27;10.25;;;3.42;;
74102;SDS011;62853;46.166;3.640;2023-04-16T00:38:53;5.63;;;2.75;;
74102;SDS011;62853;46.166;3.640;2023-04-16T00:41:20;8.27;;;2.80;;
74102;SDS011;62853;46.166;3.640;2023-04-16T00:43:47;5.75;;;2.67;;
74102;SDS011;62853;46.166;3.640;2023-04-16T00:46:12;7.18;;;3.10;;
74102;SDS011;62853;46.166;3.640;2023-04-16T00:48:38;7.43;;;2.53;;
74102;SDS011;62853;46.166;3.640;2023-04-16T00:51:05;7.65;;;2.83;;
74102;SDS011;62853;46.166;3.640;2023-04-16T00:53:32;12.70;;;3.53;;
74102;SDS011;62853;46.166;3.640;2023-04-16T00:55:58;11.13;;;3.30;;
74102;SDS011;62853;46.166;3.640;2023-04-16T00:58:26;9.68;;;3.08;;
74102;SDS011;62853;46.166;3.640;2023-04-16T01:00:53;11.77;;;3.50;;
74102;SDS011;62853;46.166;3.640;2023-04-16T01:03:18;10.60;;;3.47;;
74102;SDS011;62853;46.166;3.640;2023-04-16T01:05:44;10.95;;;3.05;;
74102;SDS011;62853;46.166;3.640;2023-04-16T01:08:19;9.80;;;3.40;;
74102;SDS011;62853;46.166;3.640;2023-04-16T01:10:46;9.50;;;3.33;;
74102;SDS011;62853;46.166;3.640;2023-04-16T01:13:11;10.43;;;3.63;;
74102;SDS011;62853;46.166;3.640;2023-04-16T01:15:37;7.00;;;3.38;;
74102;SDS011;62853;46.166;3.640;2023-04-16T01:18:02;12.25;;;3.88;;
74102;SDS011;62853;46.166;3.640;2023-04-16T01:20:38;11.60;;;3.35;;
74102;SDS011;62853;46.166;3.640;2023-04-16T01:23:03;9.52;;;4.22;;
74102;SDS011;62853;46.166;3.640;2023-04-16T01:25:28;11.45;;;3.78;;
74102;SDS011;62853;46.166;3.640;2023-04-16T01:27:55;8.25;;;3.30;;
74102;SDS011;62853;46.166;3.640;2023-04-16T01:30:21;10.63;;;4.13;;
74102;SDS011;62853;46.166;3.640;2023-04-16T01:32:46;8.93;;;3.38;;
74102;SDS011;62853;46.166;3.640;2023-04-16T01:35:12;6.50;;;3.63;;
74102;SDS011;62853;46.166;3.640;2023-04-16T01:37:37;6.40;;;3.92;;
74102;SDS011;62853;46.166;3.640;2023-04-16T01:40:02;8.70;;;3.58;;
74102;SDS011;62853;46.166;3.640;2023-04-16T01:42:28;9.82;;;3.40;;
74102;SDS011;62853;46.166;3.640;2023-04-16T01:44:53;6.65;;;3.72;;
74102;SDS011;62853;46.166;3.640;2023-04-16T01:47:19;9.18;;;3.83;;
74102;SDS011;62853;46.166;3.640;2023-04-16T01:49:44;13.48;;;3.90;;
74102;SDS011;62853;46.166;3.640;2023-04-16T01:52:12;11.32;;;4.05;;
74102;SDS011;62853;46.166;3.640;2023-04-16T01:54:37;10.85;;;4.13;;
74102;SDS011;62853;46.166;3.640;2023-04-16T01:57:03;12.88;;;4.97;;
74102;SDS011;62853;46.166;3.640;2023-04-16T01:59:28;8.82;;;4.30;;
74102;SDS011;62853;46.166;3.640;2023-04-16T02:01:53;8.48;;;4.47;;
74102;SDS011;62853;46.166;3.640;2023-04-16T02:04:19;10.35;;;4.70;;
74102;SDS011;62853;46.166;3.640;2023-04-16T02:06:44;9.48;;;4.75;;
74102;SDS011;62853;46.166;3.640;2023-04-16T02:09:11;8.50;;;4.68;;
74102;SDS011;62853;46.166;3.640;2023-04-16T02:11:36;10.93;;;4.63;;
74102;SDS011;62853;46.166;3.640;2023-04-16T02:14:02;7.75;;;4.55;;
74102;SDS011;62853;46.166;3.640;2023-04-16T02:16:27;9.75;;;4.68;;
74102;SDS011;62853;46.166;3.640;2023-04-16T02:18:52;10.15;;;4.80;;
74102;SDS011;62853;46.166;3.640;2023-04-16T02:21:18;11.75;;;5.07;;
74102;SDS011;62853;46.166;3.640;2023-04-16T02:23:44;11.02;;;5.50;;
74102;SDS011;62853;46.166;3.640;2023-04-16T02:26:11;16.33;;;5.25;;
74102;SDS011;62853;46.166;3.640;2023-04-16T02:28:37;9.88;;;5.25;;
74102;SDS011;62853;46.166;3.640;2023-04-16T02:31:03;10.05;;;5.95;;
74102;SDS011;62853;46.166;3.640;2023-04-16T02:33:28;14.55;;;5.88;;
74102;SDS011;62853;46.166;3.640;2023-04-16T02:35:55;14.60;;;5.93;;
74102;SDS011;62853;46.166;3.640;2023-04-16T02:38:21;12.10;;;7.20;;
74102;SDS011;62853;46.166;3.640;2023-04-16T02:40:46;9.93;;;5.28;;
74102;SDS011;62853;46.166;3.640;2023-04-16T02:43:12;12.80;;;5.85;;
74102;SDS011;62853;46.166;3.640;2023-04-16T02:45:37;9.25;;;5.20;;
74102;SDS011;62853;46.166;3.640;2023-04-16T02:48:03;14.07;;;6.00;;
74102;SDS011;62853;46.166;3.640;2023-04-16T02:50:28;10.85;;;5.85;;
74102;SDS011;62853;46.166;3.640;2023-04-16T02:52:54;11.48;;;5.55;;
74102;SDS011;62853;46.166;3.640;2023-04-16T02:55:19;12.52;;;5.43;;
74102;SDS011;62853;46.166;3.640;2023-04-16T02:57:45;13.40;;;5.57;;
74102;SDS011;62853;46.166;3.640;2023-04-16T03:00:10;10.55;;;5.22;;
74102;SDS011;62853;46.166;3.640;2023-04-16T03:02:36;12.27;;;6.40;;
74102;SDS011;62853;46.166;3.640;2023-04-16T03:05:02;10.30;;;5.63;;
74102;SDS011;62853;46.166;3.640;2023-04-16T03:07:28;10.77;;;5.70;;
74102;SDS011;62853;46.166;3.640;2023-04-16T03:09:53;19.48;;;5.50;;
74102;SDS011;62853;46.166;3.640;2023-04-16T03:12:18;7.60;;;5.32;;
74102;SDS011;62853;46.166;3.640;2023-04-16T03:14:44;13.80;;;6.28;;
74102;SDS011;62853;46.166;3.640;2023-04-16T03:17:09;10.15;;;4.93;;
74102;SDS011;62853;46.166;3.640;2023-04-16T03:19:35;10.10;;;5.97;;
74102;SDS011;62853;46.166;3.640;2023-04-16T03:22:00;10.07;;;5.40;;
74102;SDS011;62853;46.166;3.640;2023-04-16T03:24:26;12.13;;;6.35;;
74102;SDS011;62853;46.166;3.640;2023-04-16T03:26:52;13.50;;;5.68;;
74102;SDS011;62853;46.166;3.640;2023-04-16T03:29:17;13.43;;;6.15;;
74102;SDS011;62853;46.166;3.640;2023-04-16T03:31:42;14.98;;;7.15;;
74102;SDS011;62853;46.166;3.640;2023-04-16T03:34:08;16.38;;;6.93;;
74102;SDS011;62853;46.166;3.640;2023-04-16T03:36:33;12.95;;;6.63;;
74102;SDS011;62853;46.166;3.640;2023-04-16T03:38:58;14.90;;;7.35;;
74102;SDS011;62853;46.166;3.640;2023-04-16T03:41:24;14.95;;;7.82;;
74102;SDS011;62853;46.166;3.640;2023-04-16T03:43:49;16.83;;;7.03;;
74102;SDS011;62853;46.166;3.640;2023-04-16T03:46:14;13.40;;;7.20;;
74102;SDS011;62853;46.166;3.640;2023-04-16T03:48:40;14.23;;;8.02;;
74102;SDS011;62853;46.166;3.640;2023-04-16T03:51:05;15.57;;;8.43;;
74102;SDS011;62853;46.166;3.640;2023-04-16T03:53:30;14.35;;;7.57;;
74102;SDS011;62853;46.166;3.640;2023-04-16T03:55:56;15.93;;;8.13;;
74102;SDS011;62853;46.166;3.640;2023-04-16T03:58:21;13.63;;;7.18;;
74102;SDS011;62853;46.166;3.640;2023-04-16T04:00:47;14.27;;;8.07;;
74102;SDS011;62853;46.166;3.640;2023-04-16T04:03:12;18.00;;;8.25;;
74102;SDS011;62853;46.166;3.640;2023-04-16T04:05:40;14.63;;;8.30;;
74102;SDS011;62853;46.166;3.640;2023-04-16T04:08:07;18.20;;;8.85;;
74102;SDS011;62853;46.166;3.640;2023-04-16T04:10:33;19.25;;;10.13;;
74102;SDS011;62853;46.166;3.640;2023-04-16T04:12:59;19.65;;;8.85;;
74102;SDS011;62853;46.166;3.640;2023-04-16T04:15:26;18.60;;;9.55;;
74102;SDS011;62853;46.166;3.640;2023-04-16T04:17:52;19.55;;;9.95;;
74102;SDS011;62853;46.166;3.640;2023-04-16T04:20:17;22.92;;;10.77;;
74102;SDS011;62853;46.166;3.640;2023-04-16T04:22:42;19.08;;;9.77;;
74102;SDS011;62853;46.166;3.640;2023-04-16T04:25:11;22.17;;;10.02;;
74102;SDS011;62853;46.166;3.640;2023-04-16T04:27:36;23.40;;;11.30;;
74102;SDS011;62853;46.166;3.640;2023-04-16T04:30:02;20.17;;;9.73;;
74102;SDS011;62853;46.166;3.640;2023-04-16T04:32:31;19.38;;;9.18;;
74102;SDS011;62853;46.166;3.640;2023-04-16T04:34:57;18.83;;;9.57;;
74102;SDS011;62853;46.166;3.640;2023-04-16T04:37:23;19.52;;;9.82;;
74102;SDS011;62853;46.166;3.640;2023-04-16T04:39:49;21.95;;;9.85;;
74102;SDS011;62853;46.166;3.640;2023-04-16T04:42:15;19.80;;;9.10;;
74102;SDS011;62853;46.166;3.640;2023-04-16T04:44:42;16.42;;;9.07;;
74102;SDS011;62853;46.166;3.640;2023-04-16T04:47:08;20.33;;;9.43;;
74102;SDS011;62853;46.166;3.640;2023-04-16T04:49:33;19.50;;;9.32;;
74102;SDS011;62853;46.166;3.640;2023-04-16T04:51:58;17.38;;;9.02;;
74102;SDS011;62853;46.166;3.640;2023-04-16T04:54:25;17.45;;;8.85;;
74102;SDS011;62853;46.166;3.640;2023-04-16T04:56:50;21.55;;;10.15;;
74102;SDS011;62853;46.166;3.640;2023-04-16T04:59:16;21.20;;;9.57;;
74102;SDS011;62853;46.166;3.640;2023-04-16T05:01:42;20.95;;;8.88;;
74102;SDS011;62853;46.166;3.640;2023-04-16T05:04:07;21.27;;;9.82;;
74102;SDS011;62853;46.166;3.640;2023-04-16T05:06:32;22.00;;;9.95;;
74102;SDS011;62853;46.166;3.640;2023-04-16T05:08:58;18.13;;;9.07;;
74102;SDS011;62853;46.166;3.640;2023-04-16T05:11:23;18.63;;;9.73;;
74102;SDS011;62853;46.166;3.640;2023-04-16T05:13:49;20.35;;;9.57;;
74102;SDS011;62853;46.166;3.640;2023-04-16T05:16:14;20.98;;;11.18;;
74102;SDS011;62853;46.166;3.640;2023-04-16T05:18:40;19.42;;;9.35;;
74102;SDS011;62853;46.166;3.640;2023-04-16T05:21:05;22.33;;;10.27;;
74102;SDS011;62853;46.166;3.640;2023-04-16T05:23:31;19.63;;;9.10;;
74102;SDS011;62853;46.166;3.640;2023-04-16T05:25:56;19.48;;;9.75;;
74102;SDS011;62853;46.166;3.640;2023-04-16T05:28:22;21.60;;;9.75;;
74102;SDS011;62853;46.166;3.640;2023-04-16T05:30:47;20.45;;;9.23;;
74102;SDS011;62853;46.166;3.640;2023-04-16T05:33:12;22.95;;;10.43;;
74102;SDS011;62853;46.166;3.640;2023-04-16T05:35:38;20.10;;;10.32;;
74102;SDS011;62853;46.166;3.640;2023-04-16T05:38:03;22.90;;;9.32;;
74102;SDS011;62853;46.166;3.640;2023-04-16T05:40:29;19.25;;;10.02;;
74102;SDS011;62853;46.166;3.640;2023-04-16T05:42:55;18.00;;;9.55;;
74102;SDS011;62853;46.166;3.640;2023-04-16T05:45:20;25.27;;;10.48;;
74102;SDS011;62853;46.166;3.640;2023-04-16T05:47:46;20.35;;;10.10;;
74102;SDS011;62853;46.166;3.640;2023-04-16T05:50:11;20.58;;;9.70;;
74102;SDS011;62853;46.166;3.640;2023-04-16T05:52:37;26.15;;;9.50;;
74102;SDS011;62853;46.166;3.640;2023-04-16T05:55:02;27.75;;;10.00;;
74102;SDS011;62853;46.166;3.640;2023-04-16T05:57:28;22.88;;;9.55;;
74102;SDS011;62853;46.166;3.640;2023-04-16T05:59:54;22.40;;;8.95;;
74102;SDS011;62853;46.166;3.640;2023-04-16T06:02:19;20.40;;;10.10;;
74102;SDS011;62853;46.166;3.640;2023-04-16T06:04:44;21.58;;;9.80;;
74102;SDS011;62853;46.166;3.640;2023-04-16T06:07:10;20.95;;;9.65;;
74102;SDS011;62853;46.166;3.640;2023-04-16T06:09:35;19.90;;;9.00;;
74102;SDS011;62853;46.166;3.640;2023-04-16T06:12:01;18.98;;;9.98;;
74102;SDS011;62853;46.166;3.640;2023-04-16T06:14:26;24.67;;;9.65;;
74102;SDS011;62853;46.166;3.640;2023-04-16T06:16:52;21.33;;;9.90;;
74102;SDS011;62853;46.166;3.640;2023-04-16T06:19:17;19.38;;;10.13;;
74102;SDS011;62853;46.166;3.640;2023-04-16T06:21:42;22.77;;;10.20;;
74102;SDS011;62853;46.166;3.640;2023-04-16T06:24:08;24.70;;;9.77;;
74102;SDS011;62853;46.166;3.640;2023-04-16T06:26:33;22.15;;;9.52;;
74102;SDS011;62853;46.166;3.640;2023-04-16T06:28:59;21.70;;;9.43;;
74102;SDS011;62853;46.166;3.640;2023-04-16T06:31:25;19.15;;;9.18;;
74102;SDS011;62853;46.166;3.640;2023-04-16T06:33:50;19.27;;;9.48;;
74102;SDS011;62853;46.166;3.640;2023-04-16T06:36:15;19.13;;;9.68;;
74102;SDS011;62853;46.166;3.640;2023-04-16T06:38:41;20.17;;;9.57;;
74102;SDS011;62853;46.166;3.640;2023-04-16T06:41:07;20.67;;;9.40;;
74102;SDS011;62853;46.166;3.640;2023-04-16T06:43:32;22.80;;;10.20;;
74102;SDS011;62853;46.166;3.640;2023-04-16T06:45:57;20.70;;;9.68;;
74102;SDS011;62853;46.166;3.640;2023-04-16T06:48:23;23.42;;;9.65;;
74102;SDS011;62853;46.166;3.640;2023-04-16T06:50:49;21.00;;;8.98;;
74102;SDS011;62853;46.166;3.640;2023-04-16T06:53:15;23.23;;;9.90;;
74102;SDS011;62853;46.166;3.640;2023-04-16T06:55:40;19.50;;;8.60;;
74102;SDS011;62853;46.166;3.640;2023-04-16T06:58:05;20.15;;;9.10;;
74102;SDS011;62853;46.166;3.640;2023-04-16T07:00:31;21.40;;;8.85;;
74102;SDS011;62853;46.166;3.640;2023-04-16T07:02:58;20.85;;;8.57;;
74102;SDS011;62853;46.166;3.640;2023-04-16T07:05:25;22.73;;;9.50;;
74102;SDS011;62853;46.166;3.640;2023-04-16T07:07:51;20.58;;;9.27;;
74102;SDS011;62853;46.166;3.640;2023-04-16T07:10:16;19.13;;;8.85;;
74102;SDS011;62853;46.166;3.640;2023-04-16T07:12:42;17.80;;;9.10;;
74102;SDS011;62853;46.166;3.640;2023-04-16T07:15:07;19.77;;;8.80;;
74102;SDS011;62853;46.166;3.640;2023-04-16T07:17:33;20.50;;;8.50;;
74102;SDS011;62853;46.166;3.640;2023-04-16T07:19:59;22.27;;;8.52;;
74102;SDS011;62853;46.166;3.640;2023-04-16T07:22:24;15.73;;;8.02;;
74102;SDS011;62853;46.166;3.640;2023-04-16T07:24:50;19.33;;;8.38;;
74102;SDS011;62853;46.166;3.640;2023-04-16T07:27:15;20.73;;;8.68;;
74102;SDS011;62853;46.166;3.640;2023-04-16T07:29:41;21.88;;;9.32;;
74102;SDS011;62853;46.166;3.640;2023-04-16T07:32:06;20.23;;;9.60;;
74102;SDS011;62853;46.166;3.640;2023-04-16T07:34:37;23.35;;;9.35;;
74102;SDS011;62853;46.166;3.640;2023-04-16T07:37:03;20.13;;;9.35;;
74102;SDS011;62853;46.166;3.640;2023-04-16T07:39:28;24.83;;;10.10;;
74102;SDS011;62853;46.166;3.640;2023-04-16T07:41:53;19.48;;;9.80;;
74102;SDS011;62853;46.166;3.640;2023-04-16T07:44:19;20.90;;;9.30;;
74102;SDS011;62853;46.166;3.640;2023-04-16T07:46:44;28.65;;;10.63;;
74102;SDS011;62853;46.166;3.640;2023-04-16T07:49:09;22.80;;;8.82;;
74102;SDS011;62853;46.166;3.640;2023-04-16T07:51:35;22.80;;;10.15;;
74102;SDS011;62853;46.166;3.640;2023-04-16T07:54:00;23.65;;;11.02;;
74102;SDS011;62853;46.166;3.640;2023-04-16T07:56:26;22.83;;;10.45;;
74102;SDS011;62853;46.166;3.640;2023-04-16T07:58:51;23.40;;;10.25;;
74102;SDS011;62853;46.166;3.640;2023-04-16T08:01:16;26.25;;;10.25;;
74102;SDS011;62853;46.166;3.640;2023-04-16T08:03:42;21.05;;;10.10;;
74102;SDS011;62853;46.166;3.640;2023-04-16T08:06:07;26.27;;;10.57;;
74102;SDS011;62853;46.166;3.640;2023-04-16T08:08:32;22.55;;;9.63;;
74102;SDS011;62853;46.166;3.640;2023-04-16T08:10:58;26.40;;;11.18;;
74102;SDS011;62853;46.166;3.640;2023-04-16T08:13:24;28.30;;;11.05;;
74102;SDS011;62853;46.166;3.640;2023-04-16T08:15:49;23.25;;;10.90;;
74102;SDS011;62853;46.166;3.640;2023-04-16T08:18:15;21.15;;;10.40;;
74102;SDS011;62853;46.166;3.640;2023-04-16T08:20:40;24.17;;;10.30;;
74102;SDS011;62853;46.166;3.640;2023-04-16T08:23:06;29.42;;;10.85;;
74102;SDS011;62853;46.166;3.640;2023-04-16T08:25:32;24.85;;;11.18;;
74102;SDS011;62853;46.166;3.640;2023-04-16T08:27:57;20.08;;;9.85;;
74102;SDS011;62853;46.166;3.640;2023-04-16T08:30:22;25.50;;;11.35;;
74102;SDS011;62853;46.166;3.640;2023-04-16T08:32:48;27.58;;;11.73;;
74102;SDS011;62853;46.166;3.640;2023-04-16T08:35:14;26.40;;;10.75;;
74102;SDS011;62853;46.166;3.640;2023-04-16T08:37:39;30.73;;;12.32;;
74102;SDS011;62853;46.166;3.640;2023-04-16T08:40:05;32.67;;;12.82;;
74102;SDS011;62853;46.166;3.640;2023-04-16T08:42:32;26.90;;;10.52;;
74102;SDS011;62853;46.166;3.640;2023-04-16T08:45:07;28.38;;;11.63;;
74102;SDS011;62853;46.166;3.640;2023-04-16T08:47:37;30.67;;;10.95;;
74102;SDS011;62853;46.166;3.640;2023-04-16T08:50:03;31.52;;;12.70;;
74102;SDS011;62853;46.166;3.640;2023-04-16T08:52:30;31.67;;;12.63;;
74102;SDS011;62853;46.166;3.640;2023-04-16T08:55:06;32.33;;;11.27;;
74102;SDS011;62853;46.166;3.640;2023-04-16T08:58:11;27.90;;;12.30;;
74102;SDS011;62853;46.166;3.640;2023-04-16T09:00:30;27.05;;;13.32;;
74102;SDS011;62853;46.166;3.640;2023-04-16T09:02:57;27.92;;;12.40;;
74102;SDS011;62853;46.166;3.640;2023-04-16T09:05:23;37.10;;;13.05;;
74102;SDS011;62853;46.166;3.640;2023-04-16T09:07:50;33.22;;;13.05;;
74102;SDS011;62853;46.166;3.640;2023-04-16T09:10:16;25.40;;;12.63;;
74102;SDS011;62853;46.166;3.640;2023-04-16T09:12:43;31.73;;;13.80;;
74102;SDS011;62853;46.166;3.640;2023-04-16T09:15:09;30.92;;;12.68;;
74102;SDS011;62853;46.166;3.640;2023-04-16T09:17:36;35.00;;;12.52;;
74102;SDS011;62853;46.166;3.640;2023-04-16T09:20:02;31.33;;;14.10;;
74102;SDS011;62853;46.166;3.640;2023-04-16T09:22:30;35.65;;;13.57;;
74102;SDS011;62853;46.166;3.640;2023-04-16T09:24:56;30.70;;;12.98;;
74102;SDS011;62853;46.166;3.640;2023-04-16T09:27:21;32.65;;;13.10;;
74102;SDS011;62853;46.166;3.640;2023-04-16T09:29:47;30.23;;;12.55;;
74102;SDS011;62853;46.166;3.640;2023-04-16T09:32:13;25.80;;;12.82;;
74102;SDS011;62853;46.166;3.640;2023-04-16T09:34:57;31.30;;;12.30;;
74102;SDS011;62853;46.166;3.640;2023-04-16T09:37:26;27.75;;;11.80;;
74102;SDS011;62853;46.166;3.640;2023-04-16T09:39:59;29.52;;;12.38;;
74102;SDS011;62853;46.166;3.640;2023-04-16T09:42:27;34.47;;;12.02;;
74102;SDS011;62853;46.166;3.640;2023-04-16T09:44:54;35.03;;;11.95;;
74102;SDS011;62853;46.166;3.640;2023-04-16T09:47:20;31.73;;;13.98;;
74102;SDS011;62853;46.166;3.640;2023-04-16T09:49:47;33.38;;;12.52;;
74102;SDS011;62853;46.166;3.640;2023-04-16T09:52:13;36.45;;;14.23;;
74102;SDS011;62853;46.166;3.640;2023-04-16T09:54:50;31.52;;;13.80;;
74102;SDS011;62853;46.166;3.640;2023-04-16T09:57:17;34.67;;;13.70;;
74102;SDS011;62853;46.166;3.640;2023-04-16T09:59:45;34.67;;;12.80;;
74102;SDS011;62853;46.166;3.640;2023-04-16T10:02:10;29.60;;;14.88;;
74102;SDS011;62853;46.166;3.640;2023-04-16T10:04:48;28.83;;;13.57;;
74102;SDS011;62853;46.166;3.640;2023-04-16T10:07:16;31.85;;;12.57;;
74102;SDS011;62853;46.166;3.640;2023-04-16T10:09:42;34.08;;;13.18;;
74102;SDS011;62853;46.166;3.640;2023-04-16T10:12:07;32.97;;;12.77;;
74102;SDS011;62853;46.166;3.640;2023-04-16T10:14:33;43.30;;;15.10;;
74102;SDS011;62853;46.166;3.640;2023-04-16T10:17:00;34.15;;;13.73;;
74102;SDS011;62853;46.166;3.640;2023-04-16T10:19:27;30.23;;;13.18;;
74102;SDS011;62853;46.166;3.640;2023-04-16T10:21:52;34.60;;;15.38;;
74102;SDS011;62853;46.166;3.640;2023-04-16T10:24:19;30.20;;;12.48;;
74102;SDS011;62853;46.166;3.640;2023-04-16T10:26:45;31.83;;;14.18;;
74102;SDS011;62853;46.166;3.640;2023-04-16T10:29:12;26.20;;;12.50;;
74102;SDS011;62853;46.166;3.640;2023-04-16T10:31:37;29.10;;;13.95;;
74102;SDS011;62853;46.166;3.640;2023-04-16T10:34:04;38.63;;;15.35;;
74102;SDS011;62853;46.166;3.640;2023-04-16T10:36:35;32.53;;;13.48;;
74102;SDS011;62853;46.166;3.640;2023-04-16T10:39:01;32.72;;;14.20;;
74102;SDS011;62853;46.166;3.640;2023-04-16T10:41:27;31.38;;;12.88;;
74102;SDS011;62853;46.166;3.640;2023-04-16T10:43:52;28.65;;;14.15;;
74102;SDS011;62853;46.166;3.640;2023-04-16T10:46:35;26.60;;;12.32;;
74102;SDS011;62853;46.166;3.640;2023-04-16T10:49:24;29.02;;;12.68;;
74102;SDS011;62853;46.166;3.640;2023-04-16T10:51:53;27.85;;;13.40;;
74102;SDS011;62853;46.166;3.640;2023-04-16T10:56:54;28.63;;;12.63;;
74102;SDS011;62853;46.166;3.640;2023-04-16T10:59:21;30.42;;;12.80;;
74102;SDS011;62853;46.166;3.640;2023-04-16T11:01:54;29.75;;;13.20;;
74102;SDS011;62853;46.166;3.640;2023-04-16T11:07:00;25.38;;;13.82;;
74102;SDS011;62853;46.166;3.640;2023-04-16T11:12:11;31.20;;;13.13;;
74102;SDS011;62853;46.166;3.640;2023-04-16T11:14:43;33.25;;;14.40;;
74102;SDS011;62853;46.166;3.640;2023-04-16T11:17:15;27.58;;;13.15;;
74102;SDS011;62853;46.166;3.640;2023-04-16T11:19:41;35.38;;;14.82;;
74102;SDS011;62853;46.166;3.640;2023-04-16T11:22:07;25.50;;;14.02;;
74102;SDS011;62853;46.166;3.640;2023-04-16T11:24:35;31.75;;;13.77;;
74102;SDS011;62853;46.166;3.640;2023-04-16T11:27:03;31.35;;;12.63;;
74102;SDS011;62853;46.166;3.640;2023-04-16T11:29:29;35.85;;;15.13;;
74102;SDS011;62853;46.166;3.640;2023-04-16T11:31:54;27.55;;;12.75;;
74102;SDS011;62853;46.166;3.640;2023-04-16T11:34:20;30.88;;;14.55;;
74102;SDS011;62853;46.166;3.640;2023-04-16T11:36:49;38.05;;;13.55;;
74102;SDS011;62853;46.166;3.640;2023-04-16T11:39:15;32.80;;;15.00;;
74102;SDS011;62853;46.166;3.640;2023-04-16T11:41:45;37.72;;;15.02;;
74102;SDS011;62853;46.166;3.640;2023-04-16T11:44:21;34.55;;;15.20;;
74102;SDS011;62853;46.166;3.640;2023-04-16T11:46:49;28.92;;;14.20;;
74102;SDS011;62853;46.166;3.640;2023-04-16T11:49:15;25.15;;;14.73;;
74102;SDS011;62853;46.166;3.640;2023-04-16T11:51:44;38.45;;;16.90;;
74102;SDS011;62853;46.166;3.640;2023-04-16T11:54:20;32.53;;;14.70;;
74102;SDS011;62853;46.166;3.640;2023-04-16T11:56:47;37.25;;;15.13;;
74102;SDS011;62853;46.166;3.640;2023-04-16T12:01:41;27.98;;;14.93;;
74102;SDS011;62853;46.166;3.640;2023-04-16T12:04:10;31.30;;;14.05;;
74102;SDS011;62853;46.166;3.640;2023-04-16T12:06:37;30.35;;;13.75;;
74102;SDS011;62853;46.166;3.640;2023-04-16T12:09:24;31.80;;;14.57;;
74102;SDS011;62853;46.166;3.640;2023-04-16T12:11:51;28.52;;;13.70;;
74102;SDS011;62853;46.166;3.640;2023-04-16T12:14:16;31.08;;;14.65;;
74102;SDS011;62853;46.166;3.640;2023-04-16T12:16:42;29.48;;;14.10;;
74102;SDS011;62853;46.166;3.640;2023-04-16T12:19:09;30.52;;;14.07;;
74102;SDS011;62853;46.166;3.640;2023-04-16T12:21:42;34.60;;;15.63;;
74102;SDS011;62853;46.166;3.640;2023-04-16T12:24:09;33.05;;;13.50;;
74102;SDS011;62853;46.166;3.640;2023-04-16T12:26:44;29.60;;;14.18;;
74102;SDS011;62853;46.166;3.640;2023-04-16T12:31:58;27.23;;;13.52;;
74102;SDS011;62853;46.166;3.640;2023-04-16T12:34:24;29.05;;;13.48;;
74102;SDS011;62853;46.166;3.640;2023-04-16T12:37:02;28.35;;;12.60;;
74102;SDS011;62853;46.166;3.640;2023-04-16T12:39:30;26.27;;;13.05;;
74102;SDS011;62853;46.166;3.640;2023-04-16T12:41:55;25.48;;;13.15;;
74102;SDS011;62853;46.166;3.640;2023-04-16T12:44:21;25.20;;;12.60;;
74102;SDS011;62853;46.166;3.640;2023-04-16T12:46:46;27.33;;;13.13;;
74102;SDS011;62853;46.166;3.640;2023-04-16T12:49:11;27.23;;;12.85;;
74102;SDS011;62853;46.166;3.640;2023-04-16T12:51:37;27.48;;;13.32;;
74102;SDS011;62853;46.166;3.640;2023-04-16T12:54:03;25.20;;;13.18;;
74102;SDS011;62853;46.166;3.640;2023-04-16T12:56:31;29.30;;;13.45;;
74102;SDS011;62853;46.166;3.640;2023-04-16T12:58:57;23.02;;;12.85;;
74102;SDS011;62853;46.166;3.640;2023-04-16T13:01:23;22.83;;;12.65;;
74102;SDS011;62853;46.166;3.640;2023-04-16T13:03:49;26.65;;;15.27;;
74102;SDS011;62853;46.166;3.640;2023-04-16T13:06:14;22.38;;;12.52;;
74102;SDS011;62853;46.166;3.640;2023-04-16T13:08:41;23.50;;;12.48;;
74102;SDS011;62853;46.166;3.640;2023-04-16T13:11:08;27.13;;;12.60;;
74102;SDS011;62853;46.166;3.640;2023-04-16T13:13:34;25.00;;;12.50;;
74102;SDS011;62853;46.166;3.640;2023-04-16T13:16:00;21.45;;;12.75;;
74102;SDS011;62853;46.166;3.640;2023-04-16T13:18:28;23.90;;;11.65;;
74102;SDS011;62853;46.166;3.640;2023-04-16T13:20:53;24.15;;;13.95;;
74102;SDS011;62853;46.166;3.640;2023-04-16T13:23:19;22.30;;;11.98;;
74102;SDS011;62853;46.166;3.640;2023-04-16T13:25:44;25.73;;;16.48;;
74102;SDS011;62853;46.166;3.640;2023-04-16T13:28:10;27.05;;;13.45;;
74102;SDS011;62853;46.166;3.640;2023-04-16T13:30:35;22.77;;;12.15;;
74102;SDS011;62853;46.166;3.640;2023-04-16T13:33:01;22.48;;;15.95;;
74102;SDS011;62853;46.166;3.640;2023-04-16T13:35:26;21.60;;;12.15;;
74102;SDS011;62853;46.166;3.640;2023-04-16T13:37:52;27.60;;;16.95;;
74102;SDS011;62853;46.166;3.640;2023-04-16T13:40:18;28.00;;;12.77;;
74102;SDS011;62853;46.166;3.640;2023-04-16T13:42:43;23.83;;;12.65;;
74102;SDS011;62853;46.166;3.640;2023-04-16T13:45:09;22.67;;;13.90;;
74102;SDS011;62853;46.166;3.640;2023-04-16T13:47:35;22.95;;;11.35;;
74102;SDS011;62853;46.166;3.640;2023-04-16T13:50:02;30.80;;;13.23;;
74102;SDS011;62853;46.166;3.640;2023-04-16T13:52:28;24.52;;;12.73;;
74102;SDS011;62853;46.166;3.640;2023-04-16T13:54:53;25.15;;;13.93;;
74102;SDS011;62853;46.166;3.640;2023-04-16T13:57:19;23.83;;;14.13;;
74102;SDS011;62853;46.166;3.640;2023-04-16T13:59:44;23.50;;;12.75;;
74102;SDS011;62853;46.166;3.640;2023-04-16T14:02:10;27.42;;;14.75;;
74102;SDS011;62853;46.166;3.640;2023-04-16T14:04:36;25.27;;;12.98;;
74102;SDS011;62853;46.166;3.640;2023-04-16T14:07:01;23.25;;;15.38;;
74102;SDS011;62853;46.166;3.640;2023-04-16T14:09:27;23.42;;;12.15;;
74102;SDS011;62853;46.166;3.640;2023-04-16T14:11:52;24.83;;;13.38;;
74102;SDS011;62853;46.166;3.640;2023-04-16T14:14:17;20.02;;;11.48;;
74102;SDS011;62853;46.166;3.640;2023-04-16T14:16:43;23.27;;;12.52;;
74102;SDS011;62853;46.166;3.640;2023-04-16T14:19:08;20.38;;;12.10;;
74102;SDS011;62853;46.166;3.640;2023-04-16T14:21:34;26.02;;;18.05;;
74102;SDS011;62853;46.166;3.640;2023-04-16T14:23:59;26.15;;;16.10;;
74102;SDS011;62853;46.166;3.640;2023-04-16T14:26:25;24.02;;;14.82;;
74102;SDS011;62853;46.166;3.640;2023-04-16T14:28:50;23.13;;;14.10;;
74102;SDS011;62853;46.166;3.640;2023-04-16T14:31:16;26.75;;;16.95;;
74102;SDS011;62853;46.166;3.640;2023-04-16T14:33:42;17.40;;;11.70;;
74102;SDS011;62853;46.166;3.640;2023-04-16T14:36:08;22.80;;;14.95;;